Arklow Spray — C6VK8 — position and weather

sailwx.info

Track history (hours):
 
Tides and Currents Weather Stations Pressure Air Temp Water Temp Dewpoint Dewpoint Depression Visibility Wind Speed Wind Dir Waves Ship Positions

Arklow Spray

Last reported at 2016-May-27 19:15 UTC. Time now 2016-May-28 05:59 UTC.
Position N 37°10' W 001°09'.

Length 90 m; draft 4.6 m.

Type: Cargo ship. MMSI: 309914000.

Date/timePositionNaut miles runAvg speedWind from/ knotsBaromVisibWave heightAir tempDewpointWater temp
2016-May-27 19:15N 37°10' W 001°09'36 9.7
2016-May-27 15:33N 37°33' W 000°35'9 9.5
2016-May-27 14:33N 37°41' W 000°28'14510.3
2016-May-27 00:33N 39°46' E 001°06'1110.6
2016-May-26 23:33N 39°55' E 001°13'1010.5
2016-May-26 22:33N 40°04' E 001°19'1110.8
2016-May-26 21:33N 40°14' E 001°26'1110.8
2016-May-26 20:33N 40°23' E 001°32'1110.9
2016-May-26 19:33N 40°33' E 001°39'1111.2
2016-May-26 18:33N 40°43' E 001°46'1111.1
2016-May-26 17:33N 40°53' E 001°53'1110.5
2016-May-26 16:33N 41°02' E 001°59'1010.1
2016-May-26 15:33N 41°11' E 002°05'9 9.5
2016-May-26 14:33N 41°20' E 002°10'1 0.4
2016-May-26 12:30N 41°20' E 002°09'0 0.0
2016-May-26 11:30N 41°20' E 002°09'0 0.0
2016-May-26 00:24N 41°20' E 002°09'  
2016-May-21 15:11N 43°24' E 003°43'  
2016-May-18 16:16N 41°13' E 002°45'1110.0
2016-May-18 15:09N 41°03' E 002°37'610.4
2016-May-18 14:33N 40°58' E 002°32'1310.4
2016-May-18 13:19N 40°48' E 002°23'810.6
2016-May-18 12:33N 40°41' E 002°17'1110.8
2016-May-18 11:33N 40°33' E 002°08'1110.7
2016-May-18 10:33N 40°24' E 002°00'1010.4
2016-May-18 09:33N 40°15' E 001°53'1010.0
2016-May-18 08:33N 40°07' E 001°45'1010.0
2016-May-18 07:33N 39°59' E 001°37'  
Track history (hours):
 
Tides and Currents Weather Stations Pressure Air Temp Water Temp Dewpoint Dewpoint Depression Visibility Wind Speed Wind Dir Waves Ship Positions

Arklow Spray

Last reported at 2016-May-27 19:15 UTC. Time now 2016-May-28 05:59 UTC.
Position N 37°10' W 001°09'.

Length 90 m; draft 4.6 m.

Type: Cargo ship. MMSI: 309914000.

Date/timePositionNaut miles runAvg speedWind from/ knotsBaromVisibWave heightAir tempDewpointWater temp
2016-May-27 19:15N 37°10' W 001°09'36 9.7
2016-May-27 15:33N 37°33' W 000°35'9 9.5
2016-May-27 14:33N 37°41' W 000°28'14510.3
2016-May-27 00:33N 39°46' E 001°06'1110.6
2016-May-26 23:33N 39°55' E 001°13'1010.5
2016-May-26 22:33N 40°04' E 001°19'1110.8
2016-May-26 21:33N 40°14' E 001°26'1110.8
2016-May-26 20:33N 40°23' E 001°32'1110.9
2016-May-26 19:33N 40°33' E 001°39'1111.2
2016-May-26 18:33N 40°43' E 001°46'1111.1
2016-May-26 17:33N 40°53' E 001°53'1110.5
2016-May-26 16:33N 41°02' E 001°59'1010.1
2016-May-26 15:33N 41°11' E 002°05'9 9.5
2016-May-26 14:33N 41°20' E 002°10'1 0.4
2016-May-26 12:30N 41°20' E 002°09'0 0.0
2016-May-26 11:30N 41°20' E 002°09'0 0.0
2016-May-26 00:24N 41°20' E 002°09'  
2016-May-21 15:11N 43°24' E 003°43'  
2016-May-18 16:16N 41°13' E 002°45'1110.0
2016-May-18 15:09N 41°03' E 002°37'610.4
2016-May-18 14:33N 40°58' E 002°32'1310.4
2016-May-18 13:19N 40°48' E 002°23'810.6
2016-May-18 12:33N 40°41' E 002°17'1110.8
2016-May-18 11:33N 40°33' E 002°08'1110.7
2016-May-18 10:33N 40°24' E 002°00'1010.4
2016-May-18 09:33N 40°15' E 001°53'1010.0
2016-May-18 08:33N 40°07' E 001°45'1010.0
2016-May-18 07:33N 39°59' E 001°37'  

Dump ship's entire track history